createdAt,value
2018-09-21T00:01:00.204Z,21.04
2018-09-21T00:03:28.802Z,21.11
2018-09-21T00:05:57.933Z,21.25
2018-09-21T00:08:26.176Z,21.35
2018-09-21T00:10:54.268Z,21.43
2018-09-21T00:13:22.511Z,21.53
2018-09-21T00:15:50.995Z,21.60
2018-09-21T00:18:19.469Z,21.69
2018-09-21T00:20:48.417Z,21.74
2018-09-21T00:23:16.673Z,21.76
2018-09-21T00:25:45.477Z,21.75
2018-09-21T00:28:14.854Z,21.72
2018-09-21T00:30:43.531Z,21.72
2018-09-21T00:33:12.213Z,21.73
2018-09-21T00:35:40.908Z,21.78
2018-09-21T00:38:09.183Z,21.80
2018-09-21T00:40:37.473Z,21.79
2018-09-21T00:43:06.886Z,21.79
2018-09-21T00:45:35.456Z,21.82
2018-09-21T00:48:03.829Z,21.84
2018-09-21T00:50:32.576Z,21.68
2018-09-21T00:53:00.817Z,21.91
2018-09-21T00:55:29.597Z,21.92
2018-09-21T00:57:58.501Z,21.96
2018-09-21T01:00:27.149Z,21.91
2018-09-21T01:02:55.609Z,21.90
2018-09-21T01:05:24.326Z,21.85
2018-09-21T01:07:52.433Z,21.84
2018-09-21T01:10:21.095Z,21.79
2018-09-21T01:12:50.923Z,21.75
2018-09-21T01:15:19.801Z,21.70
2018-09-21T01:17:48.552Z,21.71
2018-09-21T01:20:17.191Z,21.73
2018-09-21T01:22:46.769Z,21.74
2018-09-21T01:25:15.211Z,21.76
2018-09-21T01:27:43.842Z,21.75
2018-09-21T01:30:12.769Z,21.71
2018-09-21T01:32:41.396Z,21.68
2018-09-21T01:35:10.209Z,21.70
2018-09-21T01:37:39.179Z,21.71
2018-09-21T01:40:07.660Z,21.56
2018-09-21T01:42:36.530Z,21.71
2018-09-21T01:45:05.222Z,21.86
2018-09-21T01:47:33.781Z,21.89
2018-09-21T01:50:03.866Z,21.95
2018-09-21T01:52:32.276Z,21.98
2018-09-21T01:55:01.434Z,21.99
2018-09-21T01:57:30.188Z,22.03
2018-09-21T01:59:58.431Z,22.07
2018-09-21T02:02:26.542Z,22.13
2018-09-21T02:04:56.114Z,22.16
2018-09-21T02:07:24.483Z,22.22
2018-09-21T02:09:52.704Z,22.27
2018-09-21T02:12:21.437Z,22.33
2018-09-21T02:14:50.087Z,22.39
2018-09-21T02:17:19.383Z,22.12
2018-09-21T02:19:47.987Z,21.47
2018-09-21T02:22:16.449Z,22.50
2018-09-21T02:24:45.067Z,22.56
2018-09-21T02:27:13.923Z,22.63
2018-09-21T02:29:45.708Z,22.65
2018-09-21T02:32:16.718Z,22.66
2018-09-21T02:34:46.709Z,22.66
2018-09-21T02:37:15.445Z,22.17
2018-09-21T02:39:43.941Z,22.64
2018-09-21T02:42:12.169Z,22.64
2018-09-21T02:44:40.479Z,22.29
2018-09-21T02:47:09.422Z,22.66
2018-09-21T02:49:37.875Z,22.68
2018-09-21T02:52:06.463Z,22.68
2018-09-21T02:54:34.826Z,22.70
2018-09-21T02:57:03.525Z,22.74
2018-09-21T02:59:32.299Z,22.78
2018-09-21T03:02:00.937Z,22.80
2018-09-21T03:04:29.343Z,22.81
2018-09-21T03:06:57.426Z,22.81
2018-09-21T03:09:25.772Z,22.77
2018-09-21T03:11:53.886Z,22.74
2018-09-21T03:14:22.309Z,22.70
2018-09-21T03:16:51.602Z,22.64
2018-09-21T03:19:24.518Z,22.60
2018-09-21T03:21:53.409Z,22.57
2018-09-21T03:24:21.756Z,22.33
2018-09-21T03:26:51.182Z,22.48
2018-09-21T03:29:20.273Z,22.40
2018-09-21T03:31:48.959Z,22.34
2018-09-21T03:34:17.663Z,22.32
2018-09-21T03:36:46.107Z,22.25
2018-09-21T03:39:16.858Z,22.23
2018-09-21T03:41:48.583Z,22.27
2018-09-21T03:44:18.101Z,22.27
2018-09-21T03:46:48.974Z,22.27
2018-09-21T03:49:17.390Z,22.09
2018-09-21T03:51:48.140Z,20.96
2018-09-21T03:54:16.834Z,22.15
2018-09-21T03:56:45.221Z,22.24
2018-09-21T03:59:13.679Z,22.26
2018-09-21T04:01:43.041Z,22.18
2018-09-21T04:04:11.704Z,22.26
2018-09-21T04:06:39.798Z,22.24
2018-09-21T04:09:09.760Z,22.24
2018-09-21T04:11:40.077Z,22.22
2018-09-21T04:14:08.592Z,22.19
2018-09-21T04:16:37.718Z,22.10
2018-09-21T04:19:06.372Z,22.15
2018-09-21T04:21:34.804Z,22.10
2018-09-21T04:24:03.314Z,22.11
2018-09-21T04:26:31.503Z,21.99
2018-09-21T04:28:59.660Z,22.06
2018-09-21T04:31:30.665Z,21.29
2018-09-21T04:33:58.842Z,22.01
2018-09-21T04:36:27.175Z,21.98
2018-09-21T04:39:01.800Z,21.95
2018-09-21T04:41:32.792Z,21.93
2018-09-21T04:44:08.075Z,21.86
2018-09-21T04:46:37.210Z,21.83
2018-09-21T04:49:06.737Z,21.80
2018-09-21T04:51:35.013Z,21.74
2018-09-21T04:54:04.903Z,21.51
2018-09-21T04:56:33.195Z,21.61
2018-09-21T04:59:02.434Z,21.69
2018-09-21T05:01:31.634Z,21.70
2018-09-21T05:03:59.942Z,21.69
2018-09-21T05:06:28.162Z,21.67
2018-09-21T05:08:57.662Z,20.88
2018-09-21T05:11:28.491Z,20.63
2018-09-21T05:13:57.976Z,21.67
2018-09-21T05:16:27.869Z,21.67
2018-09-21T05:18:56.255Z,21.57
2018-09-21T05:21:24.551Z,21.65
2018-09-21T05:23:53.122Z,21.65
2018-09-21T05:26:21.353Z,21.65
2018-09-21T05:28:50.085Z,21.67
2018-09-21T05:31:19.823Z,21.62
2018-09-21T05:33:48.005Z,21.74
2018-09-21T05:36:16.343Z,21.68
2018-09-21T05:38:47.498Z,21.78
2018-09-21T05:41:17.068Z,21.31
2018-09-21T05:43:45.369Z,21.91
2018-09-21T05:46:16.133Z,21.92
2018-09-21T05:48:44.572Z,21.79
2018-09-21T05:51:12.745Z,21.97
2018-09-21T05:53:41.543Z,21.98
2018-09-21T05:56:09.731Z,21.98
2018-09-21T05:58:40.837Z,22.01
2018-09-21T06:01:09.634Z,22.03
2018-09-21T06:03:37.946Z,22.04
2018-09-21T06:06:07.518Z,22.06
2018-09-21T06:08:46.357Z,22.07
2018-09-21T06:11:14.716Z,22.09
2018-09-21T06:13:43.305Z,22.12
2018-09-21T06:16:12.121Z,22.15
2018-09-21T06:18:41.086Z,22.18
2018-09-21T06:21:10.001Z,22.25
2018-09-21T06:23:39.301Z,22.32
2018-09-21T06:26:09.690Z,22.31
2018-09-21T06:28:38.679Z,22.47
2018-09-21T06:31:07.127Z,22.56
2018-09-21T06:33:36.239Z,22.65
2018-09-21T06:36:04.843Z,22.75
2018-09-21T06:38:33.455Z,22.85
2018-09-21T06:41:01.838Z,22.91
2018-09-21T06:43:30.986Z,22.94
2018-09-21T06:46:00.196Z,23.03
2018-09-21T06:48:28.357Z,22.67
2018-09-21T06:50:57.391Z,23.21
2018-09-21T06:53:25.527Z,23.32
2018-09-21T06:55:54.171Z,23.43
2018-09-21T06:58:26.508Z,23.54
2018-09-21T07:00:54.610Z,23.64
2018-09-21T07:03:24.175Z,23.76
2018-09-21T07:05:52.369Z,23.92
2018-09-21T07:08:21.174Z,23.31
2018-09-21T07:10:49.310Z,24.24
2018-09-21T07:13:18.210Z,24.24
2018-09-21T07:15:46.877Z,24.17
2018-09-21T07:18:15.221Z,24.08
2018-09-21T07:20:43.994Z,24.01
2018-09-21T07:23:12.284Z,23.90
2018-09-21T07:25:40.724Z,24.00
2018-09-21T07:28:09.321Z,24.05
2018-09-21T07:30:37.763Z,24.11
2018-09-21T07:33:05.932Z,24.14
2018-09-21T07:35:34.345Z,23.34
2018-09-21T07:38:02.677Z,24.13
2018-09-21T07:40:31.473Z,23.89
2018-09-21T07:43:00.603Z,24.24
2018-09-21T07:45:29.724Z,23.91
2018-09-21T07:47:59.913Z,24.09
2018-09-21T07:50:28.161Z,25.03
2018-09-21T07:52:56.947Z,24.81
2018-09-21T07:55:25.127Z,25.33
2018-09-21T07:57:55.855Z,25.47
2018-09-21T08:00:25.238Z,25.49
2018-09-21T08:02:53.354Z,25.46
2018-09-21T08:05:27.251Z,25.55
2018-09-21T08:07:55.642Z,25.69
2018-09-21T08:10:23.799Z,25.89
2018-09-21T08:12:52.564Z,26.15
2018-09-21T08:15:20.767Z,26.27
2018-09-21T08:17:48.902Z,26.31
2018-09-21T08:20:17.007Z,26.40
2018-09-21T08:22:45.160Z,26.49
2018-09-21T08:25:13.559Z,26.46
2018-09-21T08:27:42.249Z,26.30
2018-09-21T08:30:10.594Z,26.26
2018-09-21T08:32:38.692Z,26.25
2018-09-21T08:35:07.301Z,26.23
2018-09-21T08:37:35.911Z,26.26
2018-09-21T08:40:04.187Z,26.27
2018-09-21T08:42:32.914Z,26.27
2018-09-21T08:45:01.411Z,26.33
2018-09-21T08:47:29.896Z,26.28
2018-09-21T08:49:58.786Z,26.36
2018-09-21T08:52:26.868Z,26.32
2018-09-21T08:54:55.058Z,26.24
2018-09-21T08:57:23.603Z,26.21
2018-09-21T08:59:51.845Z,26.26
2018-09-21T09:02:20.049Z,26.03
2018-09-21T09:04:49.435Z,26.95
2018-09-21T09:07:18.257Z,27.48
2018-09-21T09:09:46.330Z,27.78
2018-09-21T09:12:14.882Z,27.88
2018-09-21T09:14:43.493Z,27.98
2018-09-21T09:17:11.632Z,28.04
2018-09-21T09:19:40.492Z,27.89
2018-09-21T09:22:08.685Z,27.93
2018-09-21T09:24:37.551Z,27.75
2018-09-21T09:27:06.213Z,27.63
2018-09-21T09:29:34.543Z,27.47
2018-09-21T09:32:02.859Z,27.27
2018-09-21T09:34:31.427Z,27.13
2018-09-21T09:36:59.610Z,27.05
2018-09-21T09:39:28.080Z,27.03
2018-09-21T09:41:56.599Z,27.12
2018-09-21T09:44:24.829Z,27.19
2018-09-21T09:46:53.234Z,27.23
2018-09-21T09:49:22.155Z,27.24
2018-09-21T09:51:51.788Z,27.20
2018-09-21T09:54:22.314Z,27.17
2018-09-21T09:56:52.983Z,27.17
2018-09-21T09:59:22.159Z,27.21
2018-09-21T10:01:50.805Z,27.13
2018-09-21T10:04:19.202Z,27.25
2018-09-21T10:06:47.673Z,27.29
2018-09-21T10:09:16.599Z,27.30
2018-09-21T10:11:46.254Z,27.24
2018-09-21T10:14:14.812Z,27.13
2018-09-21T10:16:44.023Z,27.02
2018-09-21T10:19:12.390Z,26.99
2018-09-21T10:21:40.924Z,26.98
2018-09-21T10:24:10.068Z,27.00
2018-09-21T10:26:39.217Z,27.07
2018-09-21T10:29:10.146Z,27.19
2018-09-21T10:31:38.581Z,27.26
2018-09-21T10:34:06.856Z,27.36
2018-09-21T10:36:37.219Z,27.46
2018-09-21T10:39:07.686Z,27.45
2018-09-21T10:41:36.334Z,27.46
2018-09-21T10:44:04.941Z,27.44
2018-09-21T10:46:38.304Z,27.49
2018-09-21T10:49:06.950Z,27.48
2018-09-21T10:51:35.484Z,27.48
2018-09-21T10:54:06.253Z,27.49
2018-09-21T10:56:34.498Z,27.45
2018-09-21T10:59:03.961Z,27.47
2018-09-21T11:01:32.589Z,27.53
2018-09-21T11:04:03.386Z,27.54
2018-09-21T11:06:32.564Z,27.54
2018-09-21T11:09:03.961Z,27.60
2018-09-21T11:11:32.777Z,27.74
2018-09-21T11:14:02.233Z,27.77
2018-09-21T11:16:32.851Z,27.84
2018-09-21T11:19:01.543Z,27.89
2018-09-21T11:21:30.084Z,27.94
2018-09-21T11:23:59.237Z,27.94
2018-09-21T11:26:35.728Z,27.93
2018-09-21T11:29:05.228Z,27.96
2018-09-21T11:31:35.063Z,28.00
2018-09-21T11:34:05.247Z,28.10
2018-09-21T11:36:38.261Z,28.15
2018-09-21T11:39:08.665Z,28.24
2018-09-21T11:44:20.699Z,28.39
2018-09-21T11:46:52.503Z,28.40
2018-09-21T11:49:21.135Z,28.46
2018-09-21T11:51:49.792Z,28.83
2018-09-21T11:54:19.391Z,28.96
2018-09-21T11:56:48.393Z,28.94
2018-09-21T11:59:17.061Z,28.92
2018-09-21T12:01:47.136Z,28.88
2018-09-21T12:04:17.565Z,28.58
2018-09-21T12:06:48.523Z,29.06
2018-09-21T12:09:20.390Z,29.25
2018-09-21T12:11:49.424Z,29.16
2018-09-21T12:14:18.302Z,29.04
2018-09-21T12:16:53.128Z,29.01
2018-09-21T12:19:22.190Z,29.17
2018-09-21T12:21:53.094Z,29.22
2018-09-21T12:24:23.203Z,29.07
2018-09-21T12:26:52.397Z,28.84
2018-09-21T12:29:23.846Z,28.60
2018-09-21T12:31:55.143Z,28.41
2018-09-21T12:34:24.231Z,28.34
2018-09-21T12:36:54.561Z,28.30
2018-09-21T12:39:23.303Z,28.23
2018-09-21T12:41:53.940Z,28.17
2018-09-21T12:44:24.287Z,28.09
2018-09-21T12:46:57.862Z,28.05
2018-09-21T12:49:26.987Z,28.20
2018-09-21T12:51:57.778Z,28.04
2018-09-21T12:54:28.591Z,28.61
2018-09-21T12:56:58.067Z,28.62
2018-09-21T12:59:27.468Z,28.16
2018-09-21T13:01:57.798Z,27.92
2018-09-21T13:04:27.608Z,28.01
2018-09-21T13:06:58.081Z,28.16
2018-09-21T13:09:28.343Z,27.62
2018-09-21T13:11:56.744Z,27.58
2018-09-21T13:14:26.762Z,27.69
2018-09-21T13:16:58.043Z,27.55
2018-09-21T13:19:26.811Z,27.44
2018-09-21T13:21:57.681Z,27.37
2018-09-21T13:24:27.725Z,27.32
2018-09-21T13:26:59.635Z,27.32
2018-09-21T13:29:29.079Z,27.30
2018-09-21T13:31:57.666Z,27.13
2018-09-21T13:34:28.001Z,27.02
2018-09-21T13:36:56.491Z,27.19
2018-09-21T13:39:26.430Z,27.14
2018-09-21T13:41:57.179Z,27.11
2018-09-21T13:44:26.021Z,26.99
2018-09-21T13:46:54.811Z,26.89
2018-09-21T13:49:26.748Z,26.81
2018-09-21T13:51:56.350Z,26.74
2018-09-21T13:54:25.596Z,26.53
2018-09-21T13:56:54.655Z,26.53
2018-09-21T13:59:22.859Z,26.53
2018-09-21T14:01:52.230Z,26.42
2018-09-21T14:07:04.483Z,26.15
2018-09-21T14:09:49.584Z,26.17
2018-09-21T14:14:51.557Z,25.81
2018-09-21T14:17:21.007Z,25.75
2018-09-21T14:19:49.307Z,25.66
2018-09-21T14:22:18.129Z,25.44
2018-09-21T14:24:47.162Z,25.20
2018-09-21T14:27:15.416Z,25.02
2018-09-21T14:29:44.033Z,24.88
2018-09-21T14:32:12.421Z,23.89
2018-09-21T14:34:40.588Z,22.34
2018-09-21T14:37:08.762Z,21.11
2018-09-21T14:39:37.141Z,20.05
2018-09-21T14:42:06.569Z,18.84
2018-09-21T14:44:35.715Z,18.46
2018-09-21T14:47:05.143Z,18.08
2018-09-21T14:49:33.627Z,17.82
2018-09-21T14:52:02.231Z,17.65
2018-09-21T14:54:30.578Z,17.40
2018-09-21T14:56:58.657Z,16.89
2018-09-21T14:59:27.293Z,16.92
2018-09-21T15:01:55.526Z,16.78
2018-09-21T15:04:24.425Z,16.64
2018-09-21T15:06:52.782Z,16.15
2018-09-21T15:09:21.271Z,16.35
2018-09-21T15:11:49.647Z,16.44
2018-09-21T15:14:28.694Z,16.46
2018-09-21T15:16:57.095Z,16.46
2018-09-21T15:19:26.077Z,16.48
2018-09-21T15:21:55.037Z,16.35
2018-09-21T15:24:23.268Z,16.23
2018-09-21T15:26:51.452Z,16.15
2018-09-21T15:29:19.588Z,16.10
2018-09-21T15:31:47.770Z,16.04
2018-09-21T15:34:16.657Z,16.01
2018-09-21T15:36:45.497Z,16.12
2018-09-21T15:39:14.251Z,16.14
2018-09-21T15:41:43.572Z,16.11
2018-09-21T15:44:13.538Z,16.33
2018-09-21T15:46:43.357Z,16.47
2018-09-21T15:49:12.335Z,16.25
2018-09-21T15:51:42.487Z,16.63
2018-09-21T15:54:12.227Z,16.60
2018-09-21T15:56:40.866Z,16.59
2018-09-21T15:59:20.251Z,16.62
2018-09-21T16:01:51.527Z,16.44
2018-09-21T16:04:32.664Z,16.66
2018-09-21T16:07:12.373Z,16.67
2018-09-21T16:09:45.546Z,16.65
2018-09-21T16:12:13.801Z,16.60
2018-09-21T16:14:46.981Z,16.56
2018-09-21T16:17:16.356Z,16.56
2018-09-21T16:19:45.370Z,15.79
2018-09-21T16:22:15.445Z,16.48
2018-09-21T16:24:44.450Z,16.42
2018-09-21T16:27:13.364Z,16.39
2018-09-21T16:29:41.858Z,16.16
2018-09-21T16:32:10.940Z,16.33
2018-09-21T16:34:39.624Z,16.04
2018-09-21T16:37:08.433Z,16.31
2018-09-21T16:39:40.837Z,16.10
2018-09-21T16:42:10.185Z,16.20
2018-09-21T16:44:41.397Z,14.90
2018-09-21T16:47:10.526Z,16.32
2018-09-21T16:49:39.770Z,16.26
2018-09-21T16:52:08.563Z,16.24
2018-09-21T16:54:40.561Z,16.18
2018-09-21T16:57:09.661Z,16.14
2018-09-21T16:59:39.635Z,16.12
2018-09-21T17:02:08.369Z,16.08
2018-09-21T17:04:38.110Z,16.05
2018-09-21T17:07:06.476Z,16.03
2018-09-21T17:09:35.197Z,16.03
2018-09-21T17:12:05.865Z,16.05
2018-09-21T17:14:34.277Z,16.04
2018-09-21T17:17:04.691Z,16.05
2018-09-21T17:19:39.603Z,16.08
2018-09-21T17:22:17.418Z,16.02
2018-09-21T17:24:46.749Z,15.98
2018-09-21T17:27:15.407Z,15.97
2018-09-21T17:29:44.129Z,15.88
2018-09-21T17:32:12.956Z,15.81
2018-09-21T17:34:42.304Z,15.75
2018-09-21T17:37:12.088Z,15.68
2018-09-21T17:39:41.143Z,15.64
2018-09-21T17:42:10.560Z,15.61
2018-09-21T17:44:38.974Z,15.56
2018-09-21T17:47:08.030Z,15.53
2018-09-21T17:49:36.735Z,15.51
2018-09-21T17:52:06.753Z,15.48
2018-09-21T17:54:36.031Z,15.47
2018-09-21T17:57:05.136Z,15.44
2018-09-21T17:59:34.136Z,14.99
2018-09-21T18:02:06.755Z,15.36
2018-09-21T18:04:36.245Z,15.34
2018-09-21T18:07:05.219Z,15.32
2018-09-21T18:09:38.502Z,15.31
2018-09-21T18:12:06.972Z,15.28
2018-09-21T18:14:35.623Z,15.23
2018-09-21T18:17:04.542Z,15.21
2018-09-21T18:19:38.186Z,15.23
2018-09-21T18:22:06.719Z,15.01
2018-09-21T18:24:36.570Z,15.09
2018-09-21T18:27:06.541Z,15.14
2018-09-21T18:29:34.971Z,14.70
2018-09-21T18:32:03.545Z,15.11
2018-09-21T18:34:31.778Z,15.10
2018-09-21T18:37:01.165Z,14.95
2018-09-21T18:39:30.485Z,15.04
2018-09-21T18:41:59.254Z,15.03
2018-09-21T18:44:27.567Z,15.03
2018-09-21T18:46:57.395Z,15.02
2018-09-21T18:49:25.879Z,14.88
2018-09-21T18:51:55.078Z,14.97
2018-09-21T18:54:23.871Z,14.88
2018-09-21T18:56:53.190Z,15.00
2018-09-21T18:59:21.577Z,14.98
2018-09-21T19:01:50.534Z,15.00
2018-09-21T19:04:18.978Z,15.02
2018-09-21T19:06:49.424Z,15.00
2018-09-21T19:09:20.249Z,14.87
2018-09-21T19:11:49.033Z,14.92
2018-09-21T19:14:17.182Z,14.90
2018-09-21T19:16:45.852Z,14.91
2018-09-21T19:19:14.025Z,14.91
2018-09-21T19:21:43.047Z,14.91
2018-09-21T19:24:12.074Z,14.47
2018-09-21T19:26:40.611Z,14.84
2018-09-21T19:29:10.087Z,14.84
2018-09-21T19:31:38.755Z,14.83
2018-09-21T19:34:07.077Z,14.81
2018-09-21T19:36:35.367Z,14.76
2018-09-21T19:39:04.205Z,14.50
2018-09-21T19:41:32.384Z,14.66
2018-09-21T19:44:01.675Z,14.64
2018-09-21T19:46:30.239Z,14.60
2018-09-21T19:48:58.755Z,14.52
2018-09-21T19:51:27.533Z,14.51
2018-09-21T19:53:57.904Z,14.55
2018-09-21T19:56:27.739Z,14.50
2018-09-21T19:58:56.020Z,14.46
2018-09-21T20:01:24.325Z,14.45
2018-09-21T20:03:52.700Z,14.44
2018-09-21T20:06:23.259Z,14.39
2018-09-21T20:08:52.801Z,14.36
2018-09-21T20:11:24.647Z,14.33
2018-09-21T20:13:58.832Z,13.87
2018-09-21T20:16:27.959Z,14.27
2018-09-21T20:18:57.688Z,14.35
2018-09-21T20:21:26.435Z,14.27
2018-09-21T20:24:00.028Z,14.35
2018-09-21T20:26:28.913Z,14.30
2018-09-21T20:28:58.394Z,14.26
2018-09-21T20:31:34.612Z,14.25
2018-09-21T20:34:05.591Z,14.26
2018-09-21T20:36:35.847Z,14.29
2018-09-21T20:39:09.463Z,14.25
2018-09-21T20:41:40.384Z,14.09
2018-09-21T20:44:11.413Z,14.21
2018-09-21T20:46:39.870Z,14.21
2018-09-21T20:49:08.350Z,14.21
2018-09-21T20:51:37.652Z,14.22
2018-09-21T20:54:10.140Z,14.10
2018-09-21T20:56:42.131Z,14.21
2018-09-21T20:59:12.271Z,14.17
2018-09-21T21:01:42.127Z,14.11
2018-09-21T21:04:10.742Z,14.10
2018-09-21T21:06:38.966Z,14.11
2018-09-21T21:09:08.789Z,13.99
2018-09-21T21:11:40.276Z,14.07
2018-09-21T21:14:09.606Z,14.05
2018-09-21T21:16:39.343Z,14.00
2018-09-21T21:19:07.639Z,13.96
2018-09-21T21:21:35.921Z,13.93
2018-09-21T21:24:08.146Z,13.91
2018-09-21T21:26:37.297Z,13.88
2018-09-21T21:29:05.941Z,13.83
2018-09-21T21:31:39.145Z,13.69
2018-09-21T21:34:09.263Z,13.77
2018-09-21T21:36:40.232Z,13.75
2018-09-21T21:39:14.732Z,13.68
2018-09-21T21:41:45.240Z,13.65
2018-09-21T21:44:16.559Z,13.10
2018-09-21T21:46:45.245Z,13.59
2018-09-21T21:49:15.693Z,13.56
2018-09-21T21:51:44.645Z,13.21
2018-09-21T21:54:13.274Z,13.52
2018-09-21T21:56:41.407Z,13.49
2018-09-21T21:59:10.120Z,13.46
2018-09-21T22:01:45.382Z,13.47
2018-09-21T22:04:17.778Z,13.46
2018-09-21T22:06:46.575Z,13.42
2018-09-21T22:09:15.189Z,13.39
2018-09-21T22:11:49.333Z,13.35
2018-09-21T22:14:17.774Z,13.22
2018-09-21T22:16:46.818Z,13.17
2018-09-21T22:19:18.995Z,13.24
2018-09-21T22:21:49.195Z,13.22
2018-09-21T22:24:18.169Z,13.15
2018-09-21T22:26:49.889Z,13.02
2018-09-21T22:29:21.341Z,13.11
2018-09-21T22:31:51.339Z,13.10
2018-09-21T22:34:21.394Z,13.11
2018-09-21T22:36:51.068Z,13.09
2018-09-21T22:39:19.643Z,13.00
2018-09-21T22:41:47.848Z,12.99
2018-09-21T22:44:16.220Z,13.10
2018-09-21T22:46:44.961Z,13.08
2018-09-21T22:49:19.688Z,13.08
2018-09-21T22:51:49.805Z,13.07
2018-09-21T22:54:18.393Z,13.06
2018-09-21T22:56:47.115Z,13.08
2018-09-21T22:59:15.678Z,13.03
2018-09-21T23:01:44.964Z,13.00
2018-09-21T23:04:15.188Z,12.97
2018-09-21T23:06:43.720Z,13.00
2018-09-21T23:09:13.449Z,12.99
2018-09-21T23:11:42.862Z,12.97
2018-09-21T23:14:12.400Z,13.00
2018-09-21T23:16:42.970Z,12.96
2018-09-21T23:19:11.297Z,12.86
2018-09-21T23:21:39.549Z,12.95
2018-09-21T23:24:11.288Z,12.95
2018-09-21T23:26:40.622Z,12.91
2018-09-21T23:29:08.902Z,12.86
2018-09-21T23:31:38.075Z,12.85
2018-09-21T23:34:06.501Z,12.90
2018-09-21T23:36:35.464Z,12.91
2018-09-21T23:39:05.291Z,12.89
2018-09-21T23:41:33.778Z,12.87
2018-09-21T23:44:04.137Z,12.74
2018-09-21T23:46:32.773Z,12.74
2018-09-21T23:49:01.286Z,12.75
2018-09-21T23:51:31.054Z,12.72
2018-09-21T23:53:59.858Z,12.52
2018-09-21T23:56:30.036Z,12.68
2018-09-21T23:58:58.783Z,12.71
